Portada
METAR-TAF:

METAR-TAF

Aeroports :

Mount Gambier, Austràlia

latitud: 37-44-44S, longitud: 140-47-07E, altitud: 65 m

Observació

L'informe es va fer fa 27 minuts, a les 14:00 UTC
Vent 16 kt del Nord
Temperatura 12°C
Humitat 82%
Pressió 1004 hPa
Visibilitat 10 km o més
Núvols disperses a una alçada de 4100 ft
Núvols disperses a una alçada de 5600 ft
Cel ennuvolat a una alçada de 7700 ft

METAR: YMTG 161400Z AUTO 35016KT 9999 // SCT041 SCT056 BKN077 12/09 Q1004

Hora: 23:57 (14:27 UTC)


TAF: manca

Observacions i pronòstics meteorològics de més de 4000 aeroports (METAR i TAF).

Les estacions disponibles són els punts grocs i vermells al mapa.

Posi el ratolí al punt desitjat per veure el nom de l'estació.

Feu clic per veure les observacions i els pronòstics meteorològics.

Per canviar el mapa: feu clic els botons verds amb una creu de color negre per apropar; al botó verd amb un guió per allunyar la imatge; o en les fletxes verdes per a mapes adjacents.


METAR-TAF: